Back to top

Greybull, WY weather

South Big Horn County Airport, Greybull, WY: 6/04/2020 04:53
Visibility10 statute milessun with broken clouds
View 7-Day Forecast
Area Summary
Sky/CloudsBroken at 11000ft
Weather [last 24 hours]None [rain began 18:38 ended 18:51; rain began 02:35 ended 02:51; rain began 03:19 ended 03:30 ]
Pressure29.86 in.Hg (1011 hPa)
Dew Point46.9 °F (8.3 °C)
Relative Humidity61.8 %
Last 24-Hour Precip.Trace
Reading TimePrecipitation
6-hr ending 6/3@23:53Trace
Temperature60.1 °F (15.6 °C)red thermometer
Reading TimeMinimum to Maximum Temperature
6-hr ending 6/3@23:5360.1 °F to 84.9 °F (15.6 °C to 29.4 °C)
6-hr ending 6/3@17:5375.9 °F to 86 °F (24.4 °C to 30 °C)
6-hr ending 6/3@11:5355 °F to 75.9 °F (12.8 °C to 24.4 °C)
6-hr ending 6/3@05:5354 °F to 68 °F (12.2 °C to 20 °C)
24-hr ending 6/4@00:5354 °F to 86 °F (12.2 °C to 30 °C)
Wind8.06 MPH (7 KT) green arrow pointing 315 degrees
Wind FromNorthwest (320 Degrees)
Rolling 24-hr Peak Wind58.7 MPH (51 KT) on 6/3@18:56
Rolling 24-hr Peak Wind FromNorthwest (310 Degrees)
Twilight Begins04:50Sunshine Yesterday
Sunrise05:27N/A
Sunset20:55
Twilight Ends21:32
METARKGEY 041053Z AUTO 32007KT 10SM BKN110 16/08 A2986 RMK AO2 SLP075 T01560083
Tags: